sensor_id;sensor_type;location;lat;lon;timestamp;temperature;humidity
40374;DHT22;26079;45.958;12.492;2024-02-16T00:00:17;4.20;99.90
40374;DHT22;26079;45.958;12.492;2024-02-16T00:02:43;4.20;99.90
40374;DHT22;26079;45.958;12.492;2024-02-16T00:05:22;4.30;99.90
40374;DHT22;26079;45.958;12.492;2024-02-16T00:07:48;4.30;99.90
40374;DHT22;26079;45.958;12.492;2024-02-16T00:10:14;4.30;99.90
40374;DHT22;26079;45.958;12.492;2024-02-16T00:12:40;4.20;99.90
40374;DHT22;26079;45.958;12.492;2024-02-16T00:15:06;4.20;99.90
40374;DHT22;26079;45.958;12.492;2024-02-16T00:17:32;4.10;99.90
40374;DHT22;26079;45.958;12.492;2024-02-16T00:19:59;4.10;99.90
40374;DHT22;26079;45.958;12.492;2024-02-16T00:22:24;4.10;99.90
40374;DHT22;26079;45.958;12.492;2024-02-16T00:24:51;4.10;99.90
40374;DHT22;26079;45.958;12.492;2024-02-16T00:27:17;4.10;99.90
40374;DHT22;26079;45.958;12.492;2024-02-16T00:29:43;4.10;99.90
40374;DHT22;26079;45.958;12.492;2024-02-16T00:32:09;4.00;99.90
40374;DHT22;26079;45.958;12.492;2024-02-16T00:34:38;3.80;99.90
40374;DHT22;26079;45.958;12.492;2024-02-16T00:37:05;3.70;99.90
40374;DHT22;26079;45.958;12.492;2024-02-16T00:39:35;3.50;99.90
40374;DHT22;26079;45.958;12.492;2024-02-16T00:42:01;3.50;99.90
40374;DHT22;26079;45.958;12.492;2024-02-16T00:44:27;3.40;99.90
40374;DHT22;26079;45.958;12.492;2024-02-16T00:46:52;3.40;99.90
40374;DHT22;26079;45.958;12.492;2024-02-16T00:49:18;3.40;99.90
40374;DHT22;26079;45.958;12.492;2024-02-16T00:51:43;3.40;99.90
40374;DHT22;26079;45.958;12.492;2024-02-16T00:54:09;3.50;99.90
40374;DHT22;26079;45.958;12.492;2024-02-16T00:56:35;3.50;99.90
40374;DHT22;26079;45.958;12.492;2024-02-16T00:59:00;3.50;99.90
40374;DHT22;26079;45.958;12.492;2024-02-16T01:01:27;3.50;99.90
40374;DHT22;26079;45.958;12.492;2024-02-16T01:03:53;3.50;99.90
40374;DHT22;26079;45.958;12.492;2024-02-16T01:06:19;3.50;99.90
40374;DHT22;26079;45.958;12.492;2024-02-16T01:08:45;3.40;99.90
40374;DHT22;26079;45.958;12.492;2024-02-16T01:11:14;3.40;99.90
40374;DHT22;26079;45.958;12.492;2024-02-16T01:13:40;3.40;99.90
40374;DHT22;26079;45.958;12.492;2024-02-16T01:16:06;3.30;99.90
40374;DHT22;26079;45.958;12.492;2024-02-16T01:18:32;3.20;99.90
40374;DHT22;26079;45.958;12.492;2024-02-16T01:21:01;3.10;99.90
40374;DHT22;26079;45.958;12.492;2024-02-16T01:23:28;3.10;99.90
40374;DHT22;26079;45.958;12.492;2024-02-16T01:25:54;3.10;99.90
40374;DHT22;26079;45.958;12.492;2024-02-16T01:28:20;3.00;99.90
40374;DHT22;26079;45.958;12.492;2024-02-16T01:30:45;3.00;99.90
40374;DHT22;26079;45.958;12.492;2024-02-16T01:33:11;3.00;99.90
40374;DHT22;26079;45.958;12.492;2024-02-16T01:35:37;3.00;99.90
40374;DHT22;26079;45.958;12.492;2024-02-16T01:38:02;3.10;99.90
40374;DHT22;26079;45.958;12.492;2024-02-16T01:40:28;3.10;99.90
40374;DHT22;26079;45.958;12.492;2024-02-16T01:42:54;3.30;99.90
40374;DHT22;26079;45.958;12.492;2024-02-16T01:45:20;3.20;99.90
40374;DHT22;26079;45.958;12.492;2024-02-16T01:47:49;3.20;99.90
40374;DHT22;26079;45.958;12.492;2024-02-16T01:50:16;3.10;99.90
40374;DHT22;26079;45.958;12.492;2024-02-16T01:52:43;3.00;99.90
40374;DHT22;26079;45.958;12.492;2024-02-16T01:55:09;3.00;99.90
40374;DHT22;26079;45.958;12.492;2024-02-16T01:57:46;2.90;99.90
40374;DHT22;26079;45.958;12.492;2024-02-16T02:00:13;2.80;99.90
40374;DHT22;26079;45.958;12.492;2024-02-16T02:02:41;2.70;99.90
40374;DHT22;26079;45.958;12.492;2024-02-16T02:05:09;2.70;99.90
40374;DHT22;26079;45.958;12.492;2024-02-16T02:07:35;2.70;99.90
40374;DHT22;26079;45.958;12.492;2024-02-16T02:10:00;2.60;99.90
40374;DHT22;26079;45.958;12.492;2024-02-16T02:12:26;2.50;99.90
40374;DHT22;26079;45.958;12.492;2024-02-16T02:14:52;2.50;99.90
40374;DHT22;26079;45.958;12.492;2024-02-16T02:17:18;2.50;99.90
40374;DHT22;26079;45.958;12.492;2024-02-16T02:19:45;2.50;99.90
40374;DHT22;26079;45.958;12.492;2024-02-16T02:22:20;2.60;99.90
40374;DHT22;26079;45.958;12.492;2024-02-16T02:24:47;2.60;99.90
40374;DHT22;26079;45.958;12.492;2024-02-16T02:27:14;2.70;99.90
40374;DHT22;26079;45.958;12.492;2024-02-16T02:29:40;2.80;99.90
40374;DHT22;26079;45.958;12.492;2024-02-16T02:32:07;2.80;99.90
40374;DHT22;26079;45.958;12.492;2024-02-16T02:34:33;2.90;99.90
40374;DHT22;26079;45.958;12.492;2024-02-16T02:36:59;3.00;99.90
40374;DHT22;26079;45.958;12.492;2024-02-16T02:39:25;3.10;99.90
40374;DHT22;26079;45.958;12.492;2024-02-16T02:41:51;3.00;99.90
40374;DHT22;26079;45.958;12.492;2024-02-16T02:44:18;3.00;99.90
40374;DHT22;26079;45.958;12.492;2024-02-16T02:46:44;2.90;99.90
40374;DHT22;26079;45.958;12.492;2024-02-16T02:49:10;2.90;99.90
40374;DHT22;26079;45.958;12.492;2024-02-16T02:51:36;3.00;99.90
40374;DHT22;26079;45.958;12.492;2024-02-16T02:54:01;3.00;99.90
40374;DHT22;26079;45.958;12.492;2024-02-16T02:56:27;3.10;99.90
40374;DHT22;26079;45.958;12.492;2024-02-16T02:58:53;3.10;99.90
40374;DHT22;26079;45.958;12.492;2024-02-16T03:01:18;3.10;99.90
40374;DHT22;26079;45.958;12.492;2024-02-16T03:03:46;3.00;99.90
40374;DHT22;26079;45.958;12.492;2024-02-16T03:06:12;2.90;99.90
40374;DHT22;26079;45.958;12.492;2024-02-16T03:08:38;2.80;99.90
40374;DHT22;26079;45.958;12.492;2024-02-16T03:11:05;2.70;99.90
40374;DHT22;26079;45.958;12.492;2024-02-16T03:13:32;2.70;99.90
40374;DHT22;26079;45.958;12.492;2024-02-16T03:15:57;2.60;99.90
40374;DHT22;26079;45.958;12.492;2024-02-16T03:18:23;2.60;99.90
40374;DHT22;26079;45.958;12.492;2024-02-16T03:20:49;2.50;99.90
40374;DHT22;26079;45.958;12.492;2024-02-16T03:23:16;2.60;99.90
40374;DHT22;26079;45.958;12.492;2024-02-16T03:25:41;2.60;99.90
40374;DHT22;26079;45.958;12.492;2024-02-16T03:28:14;2.60;99.90
40374;DHT22;26079;45.958;12.492;2024-02-16T03:30:40;2.60;99.90
40374;DHT22;26079;45.958;12.492;2024-02-16T03:33:06;2.50;99.90
40374;DHT22;26079;45.958;12.492;2024-02-16T03:35:31;2.60;99.90
40374;DHT22;26079;45.958;12.492;2024-02-16T03:37:57;2.60;99.90
40374;DHT22;26079;45.958;12.492;2024-02-16T03:40:24;2.70;99.90
40374;DHT22;26079;45.958;12.492;2024-02-16T03:42:50;2.70;99.90
40374;DHT22;26079;45.958;12.492;2024-02-16T03:45:16;2.70;99.90
40374;DHT22;26079;45.958;12.492;2024-02-16T03:47:42;2.60;99.90
40374;DHT22;26079;45.958;12.492;2024-02-16T03:50:08;2.50;99.90
40374;DHT22;26079;45.958;12.492;2024-02-16T03:52:34;2.50;99.90
40374;DHT22;26079;45.958;12.492;2024-02-16T03:54:59;2.50;99.90
40374;DHT22;26079;45.958;12.492;2024-02-16T03:57:25;2.50;99.90
40374;DHT22;26079;45.958;12.492;2024-02-16T03:59:51;2.60;99.90
40374;DHT22;26079;45.958;12.492;2024-02-16T04:02:17;2.70;99.90
40374;DHT22;26079;45.958;12.492;2024-02-16T04:04:44;2.70;99.90
40374;DHT22;26079;45.958;12.492;2024-02-16T04:07:10;2.70;99.90
40374;DHT22;26079;45.958;12.492;2024-02-16T04:09:36;2.70;99.90
40374;DHT22;26079;45.958;12.492;2024-02-16T04:12:02;2.70;99.90
40374;DHT22;26079;45.958;12.492;2024-02-16T04:14:29;2.80;99.90
40374;DHT22;26079;45.958;12.492;2024-02-16T04:16:55;2.80;99.90
40374;DHT22;26079;45.958;12.492;2024-02-16T04:19:27;2.80;99.90
40374;DHT22;26079;45.958;12.492;2024-02-16T04:21:53;2.70;99.90
40374;DHT22;26079;45.958;12.492;2024-02-16T04:24:18;2.70;99.90
40374;DHT22;26079;45.958;12.492;2024-02-16T04:26:44;2.70;99.90
40374;DHT22;26079;45.958;12.492;2024-02-16T04:29:10;2.70;99.90
40374;DHT22;26079;45.958;12.492;2024-02-16T04:31:39;2.70;99.90
40374;DHT22;26079;45.958;12.492;2024-02-16T04:34:05;2.70;99.90
40374;DHT22;26079;45.958;12.492;2024-02-16T04:36:31;2.70;99.90
40374;DHT22;26079;45.958;12.492;2024-02-16T04:38:57;2.70;99.90
40374;DHT22;26079;45.958;12.492;2024-02-16T04:41:22;2.70;99.90
40374;DHT22;26079;45.958;12.492;2024-02-16T04:43:48;2.80;99.90
40374;DHT22;26079;45.958;12.492;2024-02-16T04:46:17;2.80;99.90
40374;DHT22;26079;45.958;12.492;2024-02-16T04:48:43;2.70;99.90
40374;DHT22;26079;45.958;12.492;2024-02-16T04:51:10;2.50;99.90
40374;DHT22;26079;45.958;12.492;2024-02-16T04:53:36;2.30;99.90
40374;DHT22;26079;45.958;12.492;2024-02-16T04:56:02;2.20;99.90
40374;DHT22;26079;45.958;12.492;2024-02-16T04:58:28;2.10;99.90
40374;DHT22;26079;45.958;12.492;2024-02-16T05:00:53;2.10;99.90
40374;DHT22;26079;45.958;12.492;2024-02-16T05:03:19;2.10;99.90
40374;DHT22;26079;45.958;12.492;2024-02-16T05:05:45;2.20;99.90
40374;DHT22;26079;45.958;12.492;2024-02-16T05:08:11;2.10;99.90
40374;DHT22;26079;45.958;12.492;2024-02-16T05:10:37;2.00;99.90
40374;DHT22;26079;45.958;12.492;2024-02-16T05:13:03;1.90;99.90
40374;DHT22;26079;45.958;12.492;2024-02-16T05:15:29;1.80;99.90
40374;DHT22;26079;45.958;12.492;2024-02-16T05:17:54;1.80;99.90
40374;DHT22;26079;45.958;12.492;2024-02-16T05:20:20;1.80;99.90
40374;DHT22;26079;45.958;12.492;2024-02-16T05:22:46;1.70;99.90
40374;DHT22;26079;45.958;12.492;2024-02-16T05:25:17;1.80;99.90
40374;DHT22;26079;45.958;12.492;2024-02-16T05:27:45;1.80;99.90
40374;DHT22;26079;45.958;12.492;2024-02-16T05:30:13;1.80;99.90
40374;DHT22;26079;45.958;12.492;2024-02-16T05:32:43;1.80;99.90
40374;DHT22;26079;45.958;12.492;2024-02-16T05:35:10;1.80;99.90
40374;DHT22;26079;45.958;12.492;2024-02-16T05:37:41;1.90;99.90
40374;DHT22;26079;45.958;12.492;2024-02-16T05:40:10;2.10;99.90
40374;DHT22;26079;45.958;12.492;2024-02-16T05:42:47;2.00;99.90
40374;DHT22;26079;45.958;12.492;2024-02-16T05:45:16;1.90;99.90
40374;DHT22;26079;45.958;12.492;2024-02-16T05:47:43;1.80;99.90
40374;DHT22;26079;45.958;12.492;2024-02-16T05:50:11;1.80;99.90
40374;DHT22;26079;45.958;12.492;2024-02-16T05:52:38;1.70;99.90
40374;DHT22;26079;45.958;12.492;2024-02-16T05:55:05;1.60;99.90
40374;DHT22;26079;45.958;12.492;2024-02-16T05:57:31;1.60;99.90
40374;DHT22;26079;45.958;12.492;2024-02-16T05:59:56;1.60;99.90
40374;DHT22;26079;45.958;12.492;2024-02-16T06:02:23;1.60;99.90
40374;DHT22;26079;45.958;12.492;2024-02-16T06:04:51;1.60;99.90
40374;DHT22;26079;45.958;12.492;2024-02-16T06:07:17;1.60;99.90
40374;DHT22;26079;45.958;12.492;2024-02-16T06:09:42;1.60;99.90
40374;DHT22;26079;45.958;12.492;2024-02-16T06:12:08;1.60;99.90
40374;DHT22;26079;45.958;12.492;2024-02-16T06:14:35;1.70;99.90
40374;DHT22;26079;45.958;12.492;2024-02-16T06:17:02;1.80;99.90
40374;DHT22;26079;45.958;12.492;2024-02-16T06:19:29;1.80;99.90
40374;DHT22;26079;45.958;12.492;2024-02-16T06:21:55;1.70;99.90
40374;DHT22;26079;45.958;12.492;2024-02-16T06:24:22;1.70;99.90
40374;DHT22;26079;45.958;12.492;2024-02-16T06:26:49;1.60;99.90
40374;DHT22;26079;45.958;12.492;2024-02-16T06:29:15;1.60;99.90
40374;DHT22;26079;45.958;12.492;2024-02-16T06:31:40;1.50;99.90
40374;DHT22;26079;45.958;12.492;2024-02-16T06:34:06;1.40;99.90
40374;DHT22;26079;45.958;12.492;2024-02-16T06:36:33;1.30;99.90
40374;DHT22;26079;45.958;12.492;2024-02-16T06:38:59;1.30;99.90
40374;DHT22;26079;45.958;12.492;2024-02-16T06:41:25;1.30;99.90
40374;DHT22;26079;45.958;12.492;2024-02-16T06:43:51;1.40;99.90
40374;DHT22;26079;45.958;12.492;2024-02-16T06:46:17;1.40;99.90
40374;DHT22;26079;45.958;12.492;2024-02-16T06:48:43;1.40;99.90
40374;DHT22;26079;45.958;12.492;2024-02-16T06:51:08;1.50;99.90
40374;DHT22;26079;45.958;12.492;2024-02-16T06:53:34;1.50;99.90
40374;DHT22;26079;45.958;12.492;2024-02-16T06:56:00;1.60;99.90
40374;DHT22;26079;45.958;12.492;2024-02-16T06:58:25;1.60;99.90
40374;DHT22;26079;45.958;12.492;2024-02-16T07:00:51;1.70;99.90
40374;DHT22;26079;45.958;12.492;2024-02-16T07:03:17;1.80;99.90
40374;DHT22;26079;45.958;12.492;2024-02-16T07:05:43;1.90;99.90
40374;DHT22;26079;45.958;12.492;2024-02-16T07:08:09;2.00;99.90
40374;DHT22;26079;45.958;12.492;2024-02-16T07:10:35;2.20;99.90
40374;DHT22;26079;45.958;12.492;2024-02-16T07:13:01;2.30;99.90
40374;DHT22;26079;45.958;12.492;2024-02-16T07:15:26;2.50;99.90
40374;DHT22;26079;45.958;12.492;2024-02-16T07:17:53;2.60;99.90
40374;DHT22;26079;45.958;12.492;2024-02-16T07:20:19;2.70;99.90
40374;DHT22;26079;45.958;12.492;2024-02-16T07:22:44;2.80;99.90
40374;DHT22;26079;45.958;12.492;2024-02-16T07:25:13;2.90;99.90
40374;DHT22;26079;45.958;12.492;2024-02-16T07:27:39;3.00;99.90
40374;DHT22;26079;45.958;12.492;2024-02-16T07:30:05;3.10;99.90
40374;DHT22;26079;45.958;12.492;2024-02-16T07:32:31;3.10;99.90
40374;DHT22;26079;45.958;12.492;2024-02-16T07:34:56;3.10;99.90
40374;DHT22;26079;45.958;12.492;2024-02-16T07:37:22;3.20;99.90
40374;DHT22;26079;45.958;12.492;2024-02-16T07:39:48;3.30;99.90
40374;DHT22;26079;45.958;12.492;2024-02-16T07:42:13;3.30;99.90
40374;DHT22;26079;45.958;12.492;2024-02-16T07:44:39;3.30;99.90
40374;DHT22;26079;45.958;12.492;2024-02-16T07:47:05;3.40;99.90
40374;DHT22;26079;45.958;12.492;2024-02-16T07:49:31;3.50;99.90
40374;DHT22;26079;45.958;12.492;2024-02-16T07:51:57;3.50;99.90
40374;DHT22;26079;45.958;12.492;2024-02-16T07:54:23;3.60;99.90
40374;DHT22;26079;45.958;12.492;2024-02-16T07:56:49;3.70;99.90
40374;DHT22;26079;45.958;12.492;2024-02-16T07:59:15;3.80;99.90
40374;DHT22;26079;45.958;12.492;2024-02-16T08:01:40;3.90;99.90
40374;DHT22;26079;45.958;12.492;2024-02-16T08:04:06;3.90;99.90
40374;DHT22;26079;45.958;12.492;2024-02-16T08:06:31;4.00;99.90
40374;DHT22;26079;45.958;12.492;2024-02-16T08:08:57;4.10;99.90
40374;DHT22;26079;45.958;12.492;2024-02-16T08:11:23;4.20;99.90
40374;DHT22;26079;45.958;12.492;2024-02-16T08:13:49;4.30;99.90
40374;DHT22;26079;45.958;12.492;2024-02-16T08:16:15;4.30;99.90
40374;DHT22;26079;45.958;12.492;2024-02-16T08:18:43;4.40;99.90
40374;DHT22;26079;45.958;12.492;2024-02-16T08:21:09;4.40;99.90
40374;DHT22;26079;45.958;12.492;2024-02-16T08:23:35;4.50;99.90
40374;DHT22;26079;45.958;12.492;2024-02-16T08:26:03;4.60;99.90
40374;DHT22;26079;45.958;12.492;2024-02-16T08:28:28;4.70;99.90
40374;DHT22;26079;45.958;12.492;2024-02-16T08:30:54;4.70;99.90
40374;DHT22;26079;45.958;12.492;2024-02-16T08:33:20;4.80;99.90
40374;DHT22;26079;45.958;12.492;2024-02-16T08:35:46;4.90;99.90
40374;DHT22;26079;45.958;12.492;2024-02-16T08:38:12;5.00;99.90
40374;DHT22;26079;45.958;12.492;2024-02-16T08:40:38;5.00;99.90
40374;DHT22;26079;45.958;12.492;2024-02-16T08:43:04;5.10;99.90
40374;DHT22;26079;45.958;12.492;2024-02-16T08:45:30;5.20;99.90
40374;DHT22;26079;45.958;12.492;2024-02-16T08:47:57;5.30;99.90
40374;DHT22;26079;45.958;12.492;2024-02-16T08:50:23;5.40;99.90
40374;DHT22;26079;45.958;12.492;2024-02-16T08:52:49;5.50;99.90
40374;DHT22;26079;45.958;12.492;2024-02-16T08:55:15;5.60;99.90
40374;DHT22;26079;45.958;12.492;2024-02-16T08:57:41;5.70;99.90
40374;DHT22;26079;45.958;12.492;2024-02-16T09:00:08;5.70;99.90
40374;DHT22;26079;45.958;12.492;2024-02-16T09:02:34;5.80;99.90
40374;DHT22;26079;45.958;12.492;2024-02-16T09:05:00;5.90;99.90
40374;DHT22;26079;45.958;12.492;2024-02-16T09:07:25;6.00;99.90
40374;DHT22;26079;45.958;12.492;2024-02-16T09:09:52;6.10;99.90
40374;DHT22;26079;45.958;12.492;2024-02-16T09:12:18;6.20;99.90
40374;DHT22;26079;45.958;12.492;2024-02-16T09:14:44;6.30;99.90
40374;DHT22;26079;45.958;12.492;2024-02-16T09:17:09;6.40;99.90
40374;DHT22;26079;45.958;12.492;2024-02-16T09:19:35;6.40;99.90
40374;DHT22;26079;45.958;12.492;2024-02-16T09:22:01;6.50;99.90
40374;DHT22;26079;45.958;12.492;2024-02-16T09:24:32;6.60;99.90
40374;DHT22;26079;45.958;12.492;2024-02-16T09:26:58;6.80;99.90
40374;DHT22;26079;45.958;12.492;2024-02-16T09:29:29;7.00;99.90
40374;DHT22;26079;45.958;12.492;2024-02-16T09:31:54;7.10;99.90
40374;DHT22;26079;45.958;12.492;2024-02-16T09:34:20;7.20;99.90
40374;DHT22;26079;45.958;12.492;2024-02-16T09:36:46;7.30;99.90
40374;DHT22;26079;45.958;12.492;2024-02-16T09:39:12;7.30;99.90
40374;DHT22;26079;45.958;12.492;2024-02-16T09:41:41;7.40;99.90
40374;DHT22;26079;45.958;12.492;2024-02-16T09:44:07;7.40;99.90
40374;DHT22;26079;45.958;12.492;2024-02-16T09:46:33;7.50;99.90
40374;DHT22;26079;45.958;12.492;2024-02-16T09:49:03;7.60;99.90
40374;DHT22;26079;45.958;12.492;2024-02-16T09:51:29;7.70;99.90
40374;DHT22;26079;45.958;12.492;2024-02-16T09:53:56;7.80;99.90
40374;DHT22;26079;45.958;12.492;2024-02-16T09:56:24;8.00;99.90
40374;DHT22;26079;45.958;12.492;2024-02-16T09:58:53;8.30;99.90
40374;DHT22;26079;45.958;12.492;2024-02-16T10:01:21;8.40;99.90
40374;DHT22;26079;45.958;12.492;2024-02-16T10:03:48;8.50;99.90
40374;DHT22;26079;45.958;12.492;2024-02-16T10:06:15;8.50;99.90
40374;DHT22;26079;45.958;12.492;2024-02-16T10:08:54;8.70;99.90
40374;DHT22;26079;45.958;12.492;2024-02-16T10:11:25;8.70;99.90
40374;DHT22;26079;45.958;12.492;2024-02-16T10:14:00;8.80;99.90
40374;DHT22;26079;45.958;12.492;2024-02-16T10:16:28;8.90;99.90
40374;DHT22;26079;45.958;12.492;2024-02-16T10:19:05;8.90;99.90
40374;DHT22;26079;45.958;12.492;2024-02-16T10:21:32;9.10;99.90
40374;DHT22;26079;45.958;12.492;2024-02-16T10:24:21;9.20;99.90
40374;DHT22;26079;45.958;12.492;2024-02-16T10:26:47;9.30;99.90
40374;DHT22;26079;45.958;12.492;2024-02-16T10:29:17;9.30;99.90
40374;DHT22;26079;45.958;12.492;2024-02-16T10:31:45;9.40;99.90
40374;DHT22;26079;45.958;12.492;2024-02-16T10:34:11;9.50;99.90
40374;DHT22;26079;45.958;12.492;2024-02-16T10:36:38;9.60;99.90
40374;DHT22;26079;45.958;12.492;2024-02-16T10:39:05;9.70;99.90
40374;DHT22;26079;45.958;12.492;2024-02-16T10:41:37;9.80;99.90
40374;DHT22;26079;45.958;12.492;2024-02-16T10:44:04;9.90;99.90
40374;DHT22;26079;45.958;12.492;2024-02-16T10:46:30;10.00;99.90
40374;DHT22;26079;45.958;12.492;2024-02-16T10:48:56;10.00;99.90
40374;DHT22;26079;45.958;12.492;2024-02-16T10:51:39;10.00;99.30
40374;DHT22;26079;45.958;12.492;2024-02-16T10:54:06;10.10;99.50
40374;DHT22;26079;45.958;12.492;2024-02-16T10:56:36;10.10;99.30
40374;DHT22;26079;45.958;12.492;2024-02-16T10:59:07;10.20;99.90
40374;DHT22;26079;45.958;12.492;2024-02-16T11:01:40;10.30;99.10
40374;DHT22;26079;45.958;12.492;2024-02-16T11:04:07;10.30;99.80
40374;DHT22;26079;45.958;12.492;2024-02-16T11:06:48;10.20;99.90
40374;DHT22;26079;45.958;12.492;2024-02-16T11:09:33;10.20;99.90
40374;DHT22;26079;45.958;12.492;2024-02-16T11:12:00;10.40;99.80
40374;DHT22;26079;45.958;12.492;2024-02-16T11:14:37;10.50;99.30
40374;DHT22;26079;45.958;12.492;2024-02-16T11:17:13;10.60;98.90
40374;DHT22;26079;45.958;12.492;2024-02-16T11:19:43;10.60;99.20
40374;DHT22;26079;45.958;12.492;2024-02-16T11:22:10;10.60;99.40
40374;DHT22;26079;45.958;12.492;2024-02-16T11:24:42;10.60;99.70
40374;DHT22;26079;45.958;12.492;2024-02-16T11:27:09;10.60;99.70
40374;DHT22;26079;45.958;12.492;2024-02-16T11:29:36;10.70;99.70
40374;DHT22;26079;45.958;12.492;2024-02-16T11:32:04;10.80;99.90
40374;DHT22;26079;45.958;12.492;2024-02-16T11:34:31;10.80;99.90
40374;DHT22;26079;45.958;12.492;2024-02-16T11:36:58;10.90;99.60
40374;DHT22;26079;45.958;12.492;2024-02-16T11:39:25;10.90;99.70
40374;DHT22;26079;45.958;12.492;2024-02-16T11:42:06;10.90;99.20
40374;DHT22;26079;45.958;12.492;2024-02-16T11:44:33;10.90;99.20
40374;DHT22;26079;45.958;12.492;2024-02-16T11:47:00;11.00;99.10
40374;DHT22;26079;45.958;12.492;2024-02-16T11:49:29;11.00;99.00
40374;DHT22;26079;45.958;12.492;2024-02-16T11:51:55;11.10;99.00
40374;DHT22;26079;45.958;12.492;2024-02-16T11:54:21;11.20;98.00
40374;DHT22;26079;45.958;12.492;2024-02-16T11:56:47;11.20;97.80
40374;DHT22;26079;45.958;12.492;2024-02-16T11:59:17;11.40;97.60
40374;DHT22;26079;45.958;12.492;2024-02-16T12:01:58;11.50;97.60
40374;DHT22;26079;45.958;12.492;2024-02-16T12:04:31;11.60;97.20
40374;DHT22;26079;45.958;12.492;2024-02-16T12:09:23;11.70;97.80
40374;DHT22;26079;45.958;12.492;2024-02-16T12:11:50;11.70;96.80
40374;DHT22;26079;45.958;12.492;2024-02-16T12:14:17;11.70;95.70
40374;DHT22;26079;45.958;12.492;2024-02-16T12:16:50;11.70;96.30
40374;DHT22;26079;45.958;12.492;2024-02-16T12:19:16;11.70;96.30
40374;DHT22;26079;45.958;12.492;2024-02-16T12:21:44;11.70;96.70
40374;DHT22;26079;45.958;12.492;2024-02-16T12:24:09;11.80;96.00
40374;DHT22;26079;45.958;12.492;2024-02-16T12:26:36;11.80;94.90
40374;DHT22;26079;45.958;12.492;2024-02-16T12:29:02;11.90;94.60
40374;DHT22;26079;45.958;12.492;2024-02-16T12:31:29;12.00;93.70
40374;DHT22;26079;45.958;12.492;2024-02-16T12:33:55;12.00;94.10
40374;DHT22;26079;45.958;12.492;2024-02-16T12:36:21;11.90;94.70
40374;DHT22;26079;45.958;12.492;2024-02-16T12:38:49;12.00;93.30
40374;DHT22;26079;45.958;12.492;2024-02-16T12:41:14;12.10;93.00
40374;DHT22;26079;45.958;12.492;2024-02-16T12:43:40;12.10;94.00
40374;DHT22;26079;45.958;12.492;2024-02-16T12:46:06;12.10;92.80
40374;DHT22;26079;45.958;12.492;2024-02-16T12:48:31;12.10;94.20
40374;DHT22;26079;45.958;12.492;2024-02-16T12:50:57;12.10;95.00
40374;DHT22;26079;45.958;12.492;2024-02-16T12:53:24;12.10;94.00
40374;DHT22;26079;45.958;12.492;2024-02-16T12:55:55;12.10;93.40
40374;DHT22;26079;45.958;12.492;2024-02-16T12:58:21;12.10;93.20
40374;DHT22;26079;45.958;12.492;2024-02-16T13:00:47;12.10;93.80
40374;DHT22;26079;45.958;12.492;2024-02-16T13:03:12;12.20;93.90
40374;DHT22;26079;45.958;12.492;2024-02-16T13:05:38;12.20;92.50
40374;DHT22;26079;45.958;12.492;2024-02-16T13:08:04;12.20;92.10
40374;DHT22;26079;45.958;12.492;2024-02-16T13:10:30;12.20;92.10
40374;DHT22;26079;45.958;12.492;2024-02-16T13:12:56;12.30;92.00
40374;DHT22;26079;45.958;12.492;2024-02-16T13:15:21;12.40;92.00
40374;DHT22;26079;45.958;12.492;2024-02-16T13:17:47;12.40;92.20
40374;DHT22;26079;45.958;12.492;2024-02-16T13:20:12;12.50;92.20
40374;DHT22;26079;45.958;12.492;2024-02-16T13:22:38;12.70;91.70
40374;DHT22;26079;45.958;12.492;2024-02-16T13:25:05;12.70;91.00
40374;DHT22;26079;45.958;12.492;2024-02-16T13:27:32;12.70;90.40
40374;DHT22;26079;45.958;12.492;2024-02-16T13:29:58;12.70;91.00
40374;DHT22;26079;45.958;12.492;2024-02-16T13:32:24;12.70;90.90
40374;DHT22;26079;45.958;12.492;2024-02-16T13:34:50;12.70;90.90
40374;DHT22;26079;45.958;12.492;2024-02-16T13:37:16;12.60;91.10
40374;DHT22;26079;45.958;12.492;2024-02-16T13:39:42;12.70;89.10
40374;DHT22;26079;45.958;12.492;2024-02-16T13:42:07;12.70;90.40
40374;DHT22;26079;45.958;12.492;2024-02-16T13:44:33;12.70;90.50
40374;DHT22;26079;45.958;12.492;2024-02-16T13:46:59;12.70;92.90
40374;DHT22;26079;45.958;12.492;2024-02-16T13:49:24;12.60;92.80
40374;DHT22;26079;45.958;12.492;2024-02-16T13:51:50;12.70;92.50
40374;DHT22;26079;45.958;12.492;2024-02-16T13:54:16;12.60;92.80
40374;DHT22;26079;45.958;12.492;2024-02-16T13:56:43;12.60;92.50
40374;DHT22;26079;45.958;12.492;2024-02-16T13:59:08;12.60;92.40
40374;DHT22;26079;45.958;12.492;2024-02-16T14:01:34;12.50;92.00
40374;DHT22;26079;45.958;12.492;2024-02-16T14:04:01;12.50;92.40
40374;DHT22;26079;45.958;12.492;2024-02-16T14:06:28;12.40;92.00
40374;DHT22;26079;45.958;12.492;2024-02-16T14:08:54;12.40;92.20
40374;DHT22;26079;45.958;12.492;2024-02-16T14:11:21;12.40;92.50
40374;DHT22;26079;45.958;12.492;2024-02-16T14:13:48;12.50;92.20
40374;DHT22;26079;45.958;12.492;2024-02-16T14:16:13;12.60;93.20
40374;DHT22;26079;45.958;12.492;2024-02-16T14:18:39;12.70;91.90
40374;DHT22;26079;45.958;12.492;2024-02-16T14:21:05;12.60;92.00
40374;DHT22;26079;45.958;12.492;2024-02-16T14:23:31;12.50;91.70
40374;DHT22;26079;45.958;12.492;2024-02-16T14:25:57;12.50;92.70
40374;DHT22;26079;45.958;12.492;2024-02-16T14:28:23;12.50;92.20
40374;DHT22;26079;45.958;12.492;2024-02-16T14:30:49;12.40;92.80
40374;DHT22;26079;45.958;12.492;2024-02-16T14:33:16;12.40;93.30
40374;DHT22;26079;45.958;12.492;2024-02-16T14:35:43;12.40;94.00
40374;DHT22;26079;45.958;12.492;2024-02-16T14:38:09;12.30;94.80
40374;DHT22;26079;45.958;12.492;2024-02-16T14:40:34;12.40;95.40
40374;DHT22;26079;45.958;12.492;2024-02-16T14:43:01;12.40;96.20
40374;DHT22;26079;45.958;12.492;2024-02-16T14:45:27;12.40;96.60
40374;DHT22;26079;45.958;12.492;2024-02-16T14:47:53;12.40;96.20
40374;DHT22;26079;45.958;12.492;2024-02-16T14:50:18;12.40;96.20
40374;DHT22;26079;45.958;12.492;2024-02-16T14:52:44;12.40;96.30
40374;DHT22;26079;45.958;12.492;2024-02-16T14:55:11;12.30;96.60
40374;DHT22;26079;45.958;12.492;2024-02-16T14:57:42;12.30;96.90
40374;DHT22;26079;45.958;12.492;2024-02-16T15:00:10;12.20;97.50
40374;DHT22;26079;45.958;12.492;2024-02-16T15:02:36;12.20;97.60
40374;DHT22;26079;45.958;12.492;2024-02-16T15:05:04;12.10;98.00
40374;DHT22;26079;45.958;12.492;2024-02-16T15:07:30;12.10;97.50
40374;DHT22;26079;45.958;12.492;2024-02-16T15:09:56;12.10;97.40
40374;DHT22;26079;45.958;12.492;2024-02-16T15:12:22;12.00;97.90
40374;DHT22;26079;45.958;12.492;2024-02-16T15:14:49;12.00;97.80
40374;DHT22;26079;45.958;12.492;2024-02-16T15:17:15;12.00;98.10
40374;DHT22;26079;45.958;12.492;2024-02-16T15:19:41;11.90;98.40
40374;DHT22;26079;45.958;12.492;2024-02-16T15:22:07;11.90;98.60
40374;DHT22;26079;45.958;12.492;2024-02-16T15:24:34;11.80;99.20
40374;DHT22;26079;45.958;12.492;2024-02-16T15:26:59;11.80;98.70